sensor_id;sensor_type;location;lat;lon;timestamp;pressure;altitude;pressure_sealevel;temperature;humidity
9035;BME280;4552;43.422;24.592;2023-03-04T00:01:54;100076.69;;;7.11;100.00
9035;BME280;4552;43.422;24.592;2023-03-04T00:04:21;100070.59;;;7.04;100.00
9035;BME280;4552;43.422;24.592;2023-03-04T00:06:48;100079.25;;;7.04;100.00
9035;BME280;4552;43.422;24.592;2023-03-04T00:09:17;100060.19;;;6.95;100.00
9035;BME280;4552;43.422;24.592;2023-03-04T00:11:44;100086.25;;;7.18;100.00
9035;BME280;4552;43.422;24.592;2023-03-04T00:14:11;100069.75;;;7.29;100.00
9035;BME280;4552;43.422;24.592;2023-03-04T00:16:38;100077.59;;;7.34;100.00
9035;BME280;4552;43.422;24.592;2023-03-04T00:19:05;100074.13;;;7.36;100.00
9035;BME280;4552;43.422;24.592;2023-03-04T00:21:32;100079.34;;;7.47;100.00
9035;BME280;4552;43.422;24.592;2023-03-04T00:23:59;100075.03;;;7.52;100.00
9035;BME280;4552;43.422;24.592;2023-03-04T00:26:27;100062.00;;;7.49;100.00
9035;BME280;4552;43.422;24.592;2023-03-04T00:28:55;100070.66;;;7.66;100.00
9035;BME280;4552;43.422;24.592;2023-03-04T00:31:22;100076.75;;;7.60;100.00
9035;BME280;4552;43.422;24.592;2023-03-04T00:33:49;100053.31;;;7.65;100.00
9035;BME280;4552;43.422;24.592;2023-03-04T00:36:15;100068.09;;;7.72;100.00
9035;BME280;4552;43.422;24.592;2023-03-04T00:38:42;100048.97;;;7.55;100.00
9035;BME280;4552;43.422;24.592;2023-03-04T00:41:09;100065.44;;;7.42;100.00
9035;BME280;4552;43.422;24.592;2023-03-04T00:43:38;100068.94;;;7.41;100.00
9035;BME280;4552;43.422;24.592;2023-03-04T00:46:05;100060.22;;;7.21;100.00
9035;BME280;4552;43.422;24.592;2023-03-04T00:48:31;100050.69;;;7.17;100.00
9035;BME280;4552;43.422;24.592;2023-03-04T00:50:59;100058.50;;;7.17;100.00
9035;BME280;4552;43.422;24.592;2023-03-04T00:53:26;100050.69;;;7.24;100.00
9035;BME280;4552;43.422;24.592;2023-03-04T00:55:53;100049.81;;;7.27;100.00
9035;BME280;4552;43.422;24.592;2023-03-04T00:58:20;100045.47;;;7.18;100.00
9035;BME280;4552;43.422;24.592;2023-03-04T01:00:50;100023.78;;;7.22;100.00
9035;BME280;4552;43.422;24.592;2023-03-04T01:03:17;100053.31;;;7.47;100.00
9035;BME280;4552;43.422;24.592;2023-03-04T01:05:44;100053.31;;;7.56;100.00
9035;BME280;4552;43.422;24.592;2023-03-04T01:08:11;100040.28;;;7.69;100.00
9035;BME280;4552;43.422;24.592;2023-03-04T01:10:38;100048.06;;;7.83;100.00
9035;BME280;4552;43.422;24.592;2023-03-04T01:13:05;100051.59;;;7.61;100.00
9035;BME280;4552;43.422;24.592;2023-03-04T01:15:32;100042.91;;;7.56;100.00
9035;BME280;4552;43.422;24.592;2023-03-04T01:18:02;100027.28;;;7.47;100.00
9035;BME280;4552;43.422;24.592;2023-03-04T01:20:30;100030.75;;;7.43;100.00
9035;BME280;4552;43.422;24.592;2023-03-04T01:22:57;100012.53;;;7.43;100.00
9035;BME280;4552;43.422;24.592;2023-03-04T01:25:24;100032.47;;;7.50;100.00
9035;BME280;4552;43.422;24.592;2023-03-04T01:27:51;100035.06;;;7.62;100.00
9035;BME280;4552;43.422;24.592;2023-03-04T01:30:19;100021.19;;;7.54;100.00
9035;BME280;4552;43.422;24.592;2023-03-04T01:32:46;100042.91;;;7.53;100.00
9035;BME280;4552;43.422;24.592;2023-03-04T01:35:15;100020.31;;;7.76;100.00
9035;BME280;4552;43.422;24.592;2023-03-04T01:37:42;100039.38;;;8.02;100.00
9035;BME280;4552;43.422;24.592;2023-03-04T01:40:10;100039.38;;;8.03;100.00
9035;BME280;4552;43.422;24.592;2023-03-04T01:42:37;100035.88;;;8.04;100.00
9035;BME280;4552;43.422;24.592;2023-03-04T01:45:05;100032.41;;;7.99;100.00
9035;BME280;4552;43.422;24.592;2023-03-04T01:47:33;100031.59;;;7.88;100.00
9035;BME280;4552;43.422;24.592;2023-03-04T01:50:03;100021.16;;;7.88;100.00
9035;BME280;4552;43.422;24.592;2023-03-04T01:52:34;100007.25;;;7.86;100.00
9035;BME280;4552;43.422;24.592;2023-03-04T01:55:05;100009.91;;;7.76;100.00
9035;BME280;4552;43.422;24.592;2023-03-04T01:57:34;100040.25;;;7.87;100.00
9035;BME280;4552;43.422;24.592;2023-03-04T02:00:17;100027.22;;;7.90;100.00
9035;BME280;4552;43.422;24.592;2023-03-04T02:02:46;100033.31;;;7.88;100.00
9035;BME280;4552;43.422;24.592;2023-03-04T02:05:14;100009.88;;;7.79;100.00
9035;BME280;4552;43.422;24.592;2023-03-04T02:07:43;100025.50;;;7.83;100.00
9035;BME280;4552;43.422;24.592;2023-03-04T02:10:12;100035.03;;;7.90;100.00
9035;BME280;4552;43.422;24.592;2023-03-04T02:12:39;100037.66;;;7.83;100.00
9035;BME280;4552;43.422;24.592;2023-03-04T02:15:07;100042.84;;;7.92;100.00
9035;BME280;4552;43.422;24.592;2023-03-04T02:17:34;100035.94;;;7.73;100.00
9035;BME280;4552;43.422;24.592;2023-03-04T02:20:09;100036.81;;;7.78;100.00
9035;BME280;4552;43.422;24.592;2023-03-04T02:22:45;100032.44;;;7.84;100.00
9035;BME280;4552;43.422;24.592;2023-03-04T02:25:18;100014.19;;;7.86;100.00
9035;BME280;4552;43.422;24.592;2023-03-04T02:27:49;100022.94;;;7.55;100.00
9035;BME280;4552;43.422;24.592;2023-03-04T02:30:21;100030.75;;;7.70;100.00
9035;BME280;4552;43.422;24.592;2023-03-04T02:32:50;100029.84;;;7.81;100.00
9035;BME280;4552;43.422;24.592;2023-03-04T02:35:18;100026.38;;;7.93;100.00
9035;BME280;4552;43.422;24.592;2023-03-04T02:37:45;100024.63;;;7.86;100.00
9035;BME280;4552;43.422;24.592;2023-03-04T02:40:15;100018.56;;;7.81;100.00
9035;BME280;4552;43.422;24.592;2023-03-04T02:42:45;99999.50;;;7.67;100.00
9035;BME280;4552;43.422;24.592;2023-03-04T02:45:43;100020.31;;;7.79;100.00
9035;BME280;4552;43.422;24.592;2023-03-04T02:48:10;100017.72;;;7.68;100.00
9035;BME280;4552;43.422;24.592;2023-03-04T02:50:41;100022.94;;;7.53;100.00
9035;BME280;4552;43.422;24.592;2023-03-04T02:53:09;100012.53;;;7.40;100.00
9035;BME280;4552;43.422;24.592;2023-03-04T02:55:36;100029.88;;;7.60;100.00
9035;BME280;4552;43.422;24.592;2023-03-04T02:58:03;100013.38;;;7.45;100.00
9035;BME280;4552;43.422;24.592;2023-03-04T03:00:32;100012.53;;;7.52;100.00
9035;BME280;4552;43.422;24.592;2023-03-04T03:02:59;99989.94;;;7.42;100.00
9035;BME280;4552;43.422;24.592;2023-03-04T03:05:28;100020.31;;;7.70;100.00
9035;BME280;4552;43.422;24.592;2023-03-04T03:07:56;100021.19;;;7.76;100.00
9035;BME280;4552;43.422;24.592;2023-03-04T03:10:23;99997.72;;;7.63;100.00
9035;BME280;4552;43.422;24.592;2023-03-04T03:12:51;100012.50;;;7.77;100.00
9035;BME280;4552;43.422;24.592;2023-03-04T03:15:18;100015.06;;;7.91;100.00
9035;BME280;4552;43.422;24.592;2023-03-04T03:17:47;100001.22;;;7.65;100.00
9035;BME280;4552;43.422;24.592;2023-03-04T03:20:15;100002.06;;;7.73;100.00
9035;BME280;4552;43.422;24.592;2023-03-04T03:22:46;100018.56;;;7.84;100.00
9035;BME280;4552;43.422;24.592;2023-03-04T03:25:15;100018.56;;;7.69;100.00
9035;BME280;4552;43.422;24.592;2023-03-04T03:27:42;100011.59;;;7.80;100.00
9035;BME280;4552;43.422;24.592;2023-03-04T03:30:12;100020.25;;;8.03;100.00
9035;BME280;4552;43.422;24.592;2023-03-04T03:32:39;99996.78;;;8.07;100.00
9035;BME280;4552;43.422;24.592;2023-03-04T03:35:10;99999.38;;;8.09;100.00
9035;BME280;4552;43.422;24.592;2023-03-04T03:37:38;100018.47;;;8.29;100.00
9035;BME280;4552;43.422;24.592;2023-03-04T03:40:06;100010.63;;;8.35;100.00
9035;BME280;4552;43.422;24.592;2023-03-04T03:42:33;100014.94;;;8.46;100.00
9035;BME280;4552;43.422;24.592;2023-03-04T03:45:00;100018.47;;;8.35;100.00
9035;BME280;4552;43.422;24.592;2023-03-04T03:47:27;100008.94;;;8.29;100.00
9035;BME280;4552;43.422;24.592;2023-03-04T03:49:54;100008.94;;;8.16;100.00
9035;BME280;4552;43.422;24.592;2023-03-04T03:52:22;100018.47;;;8.20;100.00
9035;BME280;4552;43.422;24.592;2023-03-04T03:54:50;100027.19;;;8.25;100.00
9035;BME280;4552;43.422;24.592;2023-03-04T03:57:18;99990.72;;;8.07;100.00
9035;BME280;4552;43.422;24.592;2023-03-04T03:59:45;100023.69;;;8.26;100.00
9035;BME280;4552;43.422;24.592;2023-03-04T04:02:12;100023.69;;;8.27;100.00
9035;BME280;4552;43.422;24.592;2023-03-04T04:04:39;100007.16;;;8.21;100.00
9035;BME280;4552;43.422;24.592;2023-03-04T04:07:06;100000.25;;;8.17;100.00
9035;BME280;4552;43.422;24.592;2023-03-04T04:09:34;100015.00;;;8.22;100.00
9035;BME280;4552;43.422;24.592;2023-03-04T04:12:04;100021.09;;;8.15;100.00
9035;BME280;4552;43.422;24.592;2023-03-04T04:14:31;100003.78;;;8.02;100.00
9035;BME280;4552;43.422;24.592;2023-03-04T04:16:58;99988.13;;;7.93;100.00
9035;BME280;4552;43.422;24.592;2023-03-04T04:19:26;99998.56;;;7.93;100.00
9035;BME280;4552;43.422;24.592;2023-03-04T04:21:54;100020.19;;;8.21;100.00
9035;BME280;4552;43.422;24.592;2023-03-04T04:24:22;100011.53;;;8.22;100.00
9035;BME280;4552;43.422;24.592;2023-03-04T04:26:51;100015.03;;;8.09;100.00
9035;BME280;4552;43.422;24.592;2023-03-04T04:29:18;100008.06;;;8.23;100.00
9035;BME280;4552;43.422;24.592;2023-03-04T04:31:45;99994.13;;;8.27;100.00
9035;BME280;4552;43.422;24.592;2023-03-04T04:34:14;100008.06;;;8.20;99.88
9035;BME280;4552;43.422;24.592;2023-03-04T04:36:41;99998.56;;;7.93;100.00
9035;BME280;4552;43.422;24.592;2023-03-04T04:39:08;99995.97;;;7.83;100.00
9035;BME280;4552;43.422;24.592;2023-03-04T04:41:37;100006.38;;;7.86;100.00
9035;BME280;4552;43.422;24.592;2023-03-04T04:44:07;100002.94;;;7.69;100.00
9035;BME280;4552;43.422;24.592;2023-03-04T04:46:35;99989.09;;;7.53;100.00
9035;BME280;4552;43.422;24.592;2023-03-04T04:49:03;100004.69;;;7.67;100.00
9035;BME280;4552;43.422;24.592;2023-03-04T04:51:30;100007.28;;;7.83;100.00
9035;BME280;4552;43.422;24.592;2023-03-04T04:53:58;99984.72;;;7.60;100.00
9035;BME280;4552;43.422;24.592;2023-03-04T04:56:26;100010.75;;;7.90;100.00
9035;BME280;4552;43.422;24.592;2023-03-04T04:58:56;100007.22;;;7.98;100.00
9035;BME280;4552;43.422;24.592;2023-03-04T05:01:25;100002.91;;;7.93;100.00
9035;BME280;4552;43.422;24.592;2023-03-04T05:03:52;99984.72;;;7.55;100.00
9035;BME280;4552;43.422;24.592;2023-03-04T05:06:21;100005.56;;;7.58;100.00
9035;BME280;4552;43.422;24.592;2023-03-04T05:08:49;100019.44;;;7.65;100.00
9035;BME280;4552;43.422;24.592;2023-03-04T05:11:17;100017.72;;;7.53;100.00
9035;BME280;4552;43.422;24.592;2023-03-04T05:13:45;100009.94;;;7.47;100.00
9035;BME280;4552;43.422;24.592;2023-03-04T05:16:12;100009.94;;;7.40;100.00
9035;BME280;4552;43.422;24.592;2023-03-04T05:18:42;100015.13;;;7.58;100.00
9035;BME280;4552;43.422;24.592;2023-03-04T05:21:09;100004.72;;;7.52;100.00
9035;BME280;4552;43.422;24.592;2023-03-04T05:23:38;100029.00;;;7.84;100.00
9035;BME280;4552;43.422;24.592;2023-03-04T05:26:07;100029.84;;;7.84;100.00
9035;BME280;4552;43.422;24.592;2023-03-04T05:28:34;100035.94;;;7.86;100.00
9035;BME280;4552;43.422;24.592;2023-03-04T05:31:01;100037.63;;;7.95;100.00
9035;BME280;4552;43.422;24.592;2023-03-04T05:33:29;100044.63;;;7.84;99.98
9035;BME280;4552;43.422;24.592;2023-03-04T05:35:58;100040.28;;;7.77;100.00
9035;BME280;4552;43.422;24.592;2023-03-04T05:38:32;100043.72;;;7.94;100.00
9035;BME280;4552;43.422;24.592;2023-03-04T05:41:02;100042.84;;;8.01;100.00
9035;BME280;4552;43.422;24.592;2023-03-04T05:43:29;100040.25;;;7.89;100.00
9035;BME280;4552;43.422;24.592;2023-03-04T05:45:56;100047.22;;;7.82;100.00
9035;BME280;4552;43.422;24.592;2023-03-04T05:48:23;100044.63;;;7.72;100.00
9035;BME280;4552;43.422;24.592;2023-03-04T05:50:54;100026.41;;;7.81;100.00
9035;BME280;4552;43.422;24.592;2023-03-04T05:53:23;100042.84;;;7.89;100.00
9035;BME280;4552;43.422;24.592;2023-03-04T05:55:50;100030.72;;;7.86;99.89
9035;BME280;4552;43.422;24.592;2023-03-04T05:58:18;100055.88;;;8.10;99.96
9035;BME280;4552;43.422;24.592;2023-03-04T06:00:45;100061.06;;;8.32;99.69
9035;BME280;4552;43.422;24.592;2023-03-04T06:03:14;100051.50;;;8.30;98.49
9035;BME280;4552;43.422;24.592;2023-03-04T06:05:41;100035.00;;;8.29;98.09
9035;BME280;4552;43.422;24.592;2023-03-04T06:08:09;100052.28;;;8.51;98.36
9035;BME280;4552;43.422;24.592;2023-03-04T06:10:38;100045.34;;;8.55;98.06
9035;BME280;4552;43.422;24.592;2023-03-04T06:13:05;100074.88;;;8.66;97.55
9035;BME280;4552;43.422;24.592;2023-03-04T06:15:33;100072.28;;;8.63;97.82
9035;BME280;4552;43.422;24.592;2023-03-04T06:18:00;100077.38;;;8.89;97.82
9035;BME280;4552;43.422;24.592;2023-03-04T06:20:27;100074.84;;;8.69;96.99
9035;BME280;4552;43.422;24.592;2023-03-04T06:22:54;100067.13;;;8.45;98.27
9035;BME280;4552;43.422;24.592;2023-03-04T06:25:22;100081.00;;;8.50;97.80
9035;BME280;4552;43.422;24.592;2023-03-04T06:27:50;100060.16;;;8.44;97.72
9035;BME280;4552;43.422;24.592;2023-03-04T06:30:18;100075.75;;;8.53;98.05
9035;BME280;4552;43.422;24.592;2023-03-04T06:32:45;100075.69;;;8.80;97.07
9035;BME280;4552;43.422;24.592;2023-03-04T06:35:13;100071.19;;;9.09;96.21
9035;BME280;4552;43.422;24.592;2023-03-04T06:37:41;100086.66;;;9.38;94.75
9035;BME280;4552;43.422;24.592;2023-03-04T06:40:10;100071.34;;;8.70;95.68
9035;BME280;4552;43.422;24.592;2023-03-04T06:42:38;100082.56;;;8.90;96.19
9035;BME280;4552;43.422;24.592;2023-03-04T06:45:08;100089.50;;;8.94;95.82
9035;BME280;4552;43.422;24.592;2023-03-04T06:47:35;100090.22;;;9.31;94.82
9035;BME280;4552;43.422;24.592;2023-03-04T06:50:03;100078.88;;;9.29;93.25
9035;BME280;4552;43.422;24.592;2023-03-04T06:52:31;100077.13;;;9.32;94.03
9035;BME280;4552;43.422;24.592;2023-03-04T06:54:58;100071.91;;;9.32;92.96
9035;BME280;4552;43.422;24.592;2023-03-04T06:57:25;100069.91;;;9.69;92.39
9035;BME280;4552;43.422;24.592;2023-03-04T06:59:53;100088.09;;;9.79;92.31
9035;BME280;4552;43.422;24.592;2023-03-04T07:02:21;100083.81;;;9.69;92.51
9035;BME280;4552;43.422;24.592;2023-03-04T07:04:48;100083.84;;;9.63;92.62
9035;BME280;4552;43.422;24.592;2023-03-04T07:07:16;100082.09;;;9.65;93.05
9035;BME280;4552;43.422;24.592;2023-03-04T07:09:43;100077.81;;;9.57;93.00
9035;BME280;4552;43.422;24.592;2023-03-04T07:12:11;100072.88;;;9.13;93.70
9035;BME280;4552;43.422;24.592;2023-03-04T07:14:37;100054.75;;;8.91;93.97
9035;BME280;4552;43.422;24.592;2023-03-04T07:17:05;100083.31;;;9.16;93.81
9035;BME280;4552;43.422;24.592;2023-03-04T07:19:34;100093.69;;;9.25;93.51
9035;BME280;4552;43.422;24.592;2023-03-04T07:22:01;100087.53;;;9.41;91.74
9035;BME280;4552;43.422;24.592;2023-03-04T07:24:31;100063.00;;;9.57;89.82
9035;BME280;4552;43.422;24.592;2023-03-04T07:26:58;100085.50;;;9.79;87.33
9035;BME280;4552;43.422;24.592;2023-03-04T07:29:25;100054.09;;;9.82;86.99
9035;BME280;4552;43.422;24.592;2023-03-04T07:31:52;100076.56;;;10.01;85.36
9035;BME280;4552;43.422;24.592;2023-03-04T07:34:20;100087.34;;;9.65;84.13
9035;BME280;4552;43.422;24.592;2023-03-04T07:36:49;100071.81;;;9.44;85.67
9035;BME280;4552;43.422;24.592;2023-03-04T07:39:17;100074.34;;;9.58;86.66
9035;BME280;4552;43.422;24.592;2023-03-04T07:41:44;100053.63;;;9.26;88.36
9035;BME280;4552;43.422;24.592;2023-03-04T07:44:11;100057.00;;;9.45;87.25
9035;BME280;4552;43.422;24.592;2023-03-04T07:46:38;100082.34;;;9.35;87.69
9035;BME280;4552;43.422;24.592;2023-03-04T07:49:06;100077.78;;;9.61;87.36
9035;BME280;4552;43.422;24.592;2023-03-04T07:51:33;100054.59;;;9.13;88.73
9035;BME280;4552;43.422;24.592;2023-03-04T07:54:03;100058.16;;;8.97;90.85
9035;BME280;4552;43.422;24.592;2023-03-04T07:56:32;100058.06;;;9.18;90.79
9035;BME280;4552;43.422;24.592;2023-03-04T07:59:00;100065.00;;;9.19;92.32
9035;BME280;4552;43.422;24.592;2023-03-04T08:01:28;100074.59;;;9.16;90.95
9035;BME280;4552;43.422;24.592;2023-03-04T08:03:56;100056.41;;;9.02;90.83
9035;BME280;4552;43.422;24.592;2023-03-04T08:06:24;100045.06;;;9.11;90.59
9035;BME280;4552;43.422;24.592;2023-03-04T08:08:55;100058.09;;;9.15;90.17
9035;BME280;4552;43.422;24.592;2023-03-04T08:11:27;100069.22;;;9.43;90.06
9035;BME280;4552;43.422;24.592;2023-03-04T08:13:54;100064.72;;;9.58;89.85
9035;BME280;4552;43.422;24.592;2023-03-04T08:16:24;100064.78;;;9.52;89.28
9035;BME280;4552;43.422;24.592;2023-03-04T08:18:53;100054.28;;;9.58;88.75
9035;BME280;4552;43.422;24.592;2023-03-04T08:21:22;100046.50;;;9.49;88.64
9035;BME280;4552;43.422;24.592;2023-03-04T08:23:50;100060.38;;;9.60;88.95
9035;BME280;4552;43.422;24.592;2023-03-04T08:26:19;100042.13;;;9.56;88.29
9035;BME280;4552;43.422;24.592;2023-03-04T08:28:57;100052.25;;;9.90;87.64
9035;BME280;4552;43.422;24.592;2023-03-04T08:31:26;100052.38;;;9.78;86.99
9035;BME280;4552;43.422;24.592;2023-03-04T08:33:53;100048.84;;;9.85;87.17
9035;BME280;4552;43.422;24.592;2023-03-04T08:36:21;100039.94;;;10.07;87.43
9035;BME280;4552;43.422;24.592;2023-03-04T08:38:48;100039.34;;;9.74;87.79
9035;BME280;4552;43.422;24.592;2023-03-04T08:41:16;100044.56;;;9.74;88.96
9035;BME280;4552;43.422;24.592;2023-03-04T08:43:49;100037.31;;;10.03;88.39
9035;BME280;4552;43.422;24.592;2023-03-04T08:46:21;100037.13;;;10.27;87.61
9035;BME280;4552;43.422;24.592;2023-03-04T08:48:51;100043.25;;;10.23;85.85
9035;BME280;4552;43.422;24.592;2023-03-04T08:51:19;100035.34;;;10.27;85.51
9035;BME280;4552;43.422;24.592;2023-03-04T08:53:46;100038.97;;;10.16;86.04
9035;BME280;4552;43.422;24.592;2023-03-04T08:56:17;100046.88;;;10.11;86.55
9035;BME280;4552;43.422;24.592;2023-03-04T08:58:44;100037.13;;;10.24;87.64
9035;BME280;4552;43.422;24.592;2023-03-04T09:01:13;100024.63;;;10.48;86.58
9035;BME280;4552;43.422;24.592;2023-03-04T09:03:41;100033.34;;;10.50;84.19
9035;BME280;4552;43.422;24.592;2023-03-04T09:06:14;100029.84;;;10.50;84.20
9035;BME280;4552;43.422;24.592;2023-03-04T09:08:42;100030.81;;;10.44;84.13
9035;BME280;4552;43.422;24.592;2023-03-04T09:11:09;100034.50;;;10.24;85.15
9035;BME280;4552;43.422;24.592;2023-03-04T09:13:36;100031.81;;;10.33;84.39
9035;BME280;4552;43.422;24.592;2023-03-04T09:16:08;100023.56;;;10.66;83.02
9035;BME280;4552;43.422;24.592;2023-03-04T09:18:38;100021.91;;;10.57;83.05
9035;BME280;4552;43.422;24.592;2023-03-04T09:21:05;100024.50;;;10.62;82.88
9035;BME280;4552;43.422;24.592;2023-03-04T09:23:33;100017.31;;;10.76;83.56
9035;BME280;4552;43.422;24.592;2023-03-04T09:26:00;100019.72;;;10.90;83.29
9035;BME280;4552;43.422;24.592;2023-03-04T09:28:27;100019.91;;;10.78;84.00
9035;BME280;4552;43.422;24.592;2023-03-04T09:30:58;99993.09;;;10.61;84.30
9035;BME280;4552;43.422;24.592;2023-03-04T09:33:25;100001.38;;;10.94;83.81
9035;BME280;4552;43.422;24.592;2023-03-04T09:35:56;99976.91;;;10.95;82.57
9035;BME280;4552;43.422;24.592;2023-03-04T09:38:23;99997.81;;;10.98;82.07
9035;BME280;4552;43.422;24.592;2023-03-04T09:40:52;100011.06;;;10.88;83.25
9035;BME280;4552;43.422;24.592;2023-03-04T09:43:25;100010.84;;;11.03;83.28
9035;BME280;4552;43.422;24.592;2023-03-04T09:46:00;99969.56;;;10.61;83.72
9035;BME280;4552;43.422;24.592;2023-03-04T09:49:53;99999.63;;;10.92;82.38
9035;BME280;4552;43.422;24.592;2023-03-04T09:54:52;99996.50;;;11.28;81.84
9035;BME280;4552;43.422;24.592;2023-03-04T09:57:28;99992.72;;;11.44;81.01
9035;BME280;4552;43.422;24.592;2023-03-04T10:00:15;99967.69;;;11.28;80.00
9035;BME280;4552;43.422;24.592;2023-03-04T10:02:53;99966.50;;;11.44;80.08
9035;BME280;4552;43.422;24.592;2023-03-04T10:05:30;99986.44;;;11.54;80.10
9035;BME280;4552;43.422;24.592;2023-03-04T10:08:06;99974.19;;;11.54;78.32
9035;BME280;4552;43.422;24.592;2023-03-04T10:10:39;99972.44;;;11.56;79.56
9035;BME280;4552;43.422;24.592;2023-03-04T10:13:13;99953.53;;;11.36;79.82
9035;BME280;4552;43.422;24.592;2023-03-04T10:15:43;99941.78;;;11.63;79.97
9035;BME280;4552;43.422;24.592;2023-03-04T10:18:17;99970.41;;;12.19;76.76
9035;BME280;4552;43.422;24.592;2023-03-04T10:20:53;99954.78;;;12.13;77.47
9035;BME280;4552;43.422;24.592;2023-03-04T10:23:26;99956.63;;;12.08;76.70
9035;BME280;4552;43.422;24.592;2023-03-04T10:25:54;99959.09;;;12.15;74.98
9035;BME280;4552;43.422;24.592;2023-03-04T10:28:25;99940.56;;;12.23;74.59
9035;BME280;4552;43.422;24.592;2023-03-04T10:30:57;99950.50;;;12.52;74.94
9035;BME280;4552;43.422;24.592;2023-03-04T10:33:27;99947.16;;;12.44;73.99
9035;BME280;4552;43.422;24.592;2023-03-04T10:36:00;99950.66;;;12.43;76.13
9035;BME280;4552;43.422;24.592;2023-03-04T10:38:31;99940.81;;;12.54;74.49
9035;BME280;4552;43.422;24.592;2023-03-04T10:41:00;99911.34;;;11.98;74.29
9035;BME280;4552;43.422;24.592;2023-03-04T10:43:32;99922.59;;;12.05;74.62
9035;BME280;4552;43.422;24.592;2023-03-04T10:46:03;99899.03;;;12.02;74.22
9035;BME280;4552;43.422;24.592;2023-03-04T10:48:31;99908.16;;;12.27;75.11
9035;BME280;4552;43.422;24.592;2023-03-04T10:51:12;99919.38;;;12.32;74.03
9035;BME280;4552;43.422;24.592;2023-03-04T10:53:43;99883.91;;;12.14;75.67
9035;BME280;4552;43.422;24.592;2023-03-04T10:56:31;99910.09;;;12.57;73.95
9035;BME280;4552;43.422;24.592;2023-03-04T11:02:20;99887.66;;;12.01;75.26
9035;BME280;4552;43.422;24.592;2023-03-04T11:04:54;99867.16;;;12.20;74.27
9035;BME280;4552;43.422;24.592;2023-03-04T11:07:24;99895.84;;;12.29;74.89
9035;BME280;4552;43.422;24.592;2023-03-04T11:09:54;99878.22;;;12.36;74.54
9035;BME280;4552;43.422;24.592;2023-03-04T11:12:33;99877.69;;;12.18;74.54
9035;BME280;4552;43.422;24.592;2023-03-04T11:15:01;99854.38;;;12.05;76.01
9035;BME280;4552;43.422;24.592;2023-03-04T11:17:40;99871.19;;;11.96;76.38
9035;BME280;4552;43.422;24.592;2023-03-04T11:20:26;99850.31;;;11.92;77.37
9035;BME280;4552;43.422;24.592;2023-03-04T11:22:56;99845.41;;;11.74;76.78
9035;BME280;4552;43.422;24.592;2023-03-04T11:25:27;99856.88;;;12.11;76.24
9035;BME280;4552;43.422;24.592;2023-03-04T11:27:59;99848.94;;;12.14;74.99
9035;BME280;4552;43.422;24.592;2023-03-04T11:30:35;99840.94;;;12.20;74.64
9035;BME280;4552;43.422;24.592;2023-03-04T11:33:20;99845.16;;;12.27;75.57
9035;BME280;4552;43.422;24.592;2023-03-04T11:36:05;99825.84;;;12.30;75.16
9035;BME280;4552;43.422;24.592;2023-03-04T11:38:40;99827.28;;;12.43;74.06
9035;BME280;4552;43.422;24.592;2023-03-04T11:41:13;99836.38;;;12.66;74.27
9035;BME280;4552;43.422;24.592;2023-03-04T11:43:44;99830.81;;;12.78;71.99
9035;BME280;4552;43.422;24.592;2023-03-04T11:46:42;99807.25;;;12.75;71.36
9035;BME280;4552;43.422;24.592;2023-03-04T11:49:28;99805.53;;;12.74;70.33
9035;BME280;4552;43.422;24.592;2023-03-04T11:52:07;99789.63;;;12.45;69.73
9035;BME280;4552;43.422;24.592;2023-03-04T11:54:44;99827.19;;;12.82;68.30
9035;BME280;4552;43.422;24.592;2023-03-04T11:57:22;99782.47;;;12.52;66.50
9035;BME280;4552;43.422;24.592;2023-03-04T12:00:03;99788.59;;;12.51;66.91
9035;BME280;4552;43.422;24.592;2023-03-04T12:02:45;99798.13;;;12.56;66.46
9035;BME280;4552;43.422;24.592;2023-03-04T12:05:26;99807.25;;;12.75;66.72
9035;BME280;4552;43.422;24.592;2023-03-04T12:08:23;99795.25;;;13.02;66.90
9035;BME280;4552;43.422;24.592;2023-03-04T12:11:00;99786.59;;;12.95;66.98
9035;BME280;4552;43.422;24.592;2023-03-04T12:14:04;99785.09;;;12.87;67.27
9035;BME280;4552;43.422;24.592;2023-03-04T12:17:00;99791.50;;;13.10;66.38
9035;BME280;4552;43.422;24.592;2023-03-04T12:19:46;99782.25;;;13.60;65.03
9035;BME280;4552;43.422;24.592;2023-03-04T12:22:33;99794.00;;;13.47;65.46
9035;BME280;4552;43.422;24.592;2023-03-04T12:25:18;99797.81;;;13.67;65.15
9035;BME280;4552;43.422;24.592;2023-03-04T12:27:58;99794.13;;;13.42;63.98
9035;BME280;4552;43.422;24.592;2023-03-04T12:30:36;99761.75;;;13.08;65.46
9035;BME280;4552;43.422;24.592;2023-03-04T12:33:14;99775.22;;;13.28;66.26
9035;BME280;4552;43.422;24.592;2023-03-04T12:35:59;99760.94;;;13.38;66.52
9035;BME280;4552;43.422;24.592;2023-03-04T12:38:35;99774.31;;;13.61;66.55
9035;BME280;4552;43.422;24.592;2023-03-04T12:41:20;99762.53;;;13.74;63.34
9035;BME280;4552;43.422;24.592;2023-03-04T12:43:58;99752.09;;;14.01;60.58
9035;BME280;4552;43.422;24.592;2023-03-04T12:46:41;99743.31;;;13.71;58.97
9035;BME280;4552;43.422;24.592;2023-03-04T12:49:21;99735.38;;;13.72;61.47
9035;BME280;4552;43.422;24.592;2023-03-04T12:51:59;99743.25;;;14.02;60.33
9035;BME280;4552;43.422;24.592;2023-03-04T12:54:31;99745.09;;;14.00;63.49
9035;BME280;4552;43.422;24.592;2023-03-04T12:57:03;99744.56;;;13.59;64.17
9035;BME280;4552;43.422;24.592;2023-03-04T12:59:36;99732.66;;;13.46;65.80
9035;BME280;4552;43.422;24.592;2023-03-04T13:02:22;99729.50;;;13.64;65.13
9035;BME280;4552;43.422;24.592;2023-03-04T13:05:06;99726.72;;;13.40;63.73
9035;BME280;4552;43.422;24.592;2023-03-04T13:07:51;99713.09;;;12.94;63.52
9035;BME280;4552;43.422;24.592;2023-03-04T13:10:24;99716.63;;;12.93;65.89
9035;BME280;4552;43.422;24.592;2023-03-04T13:12:52;99714.06;;;13.23;64.09
9035;BME280;4552;43.422;24.592;2023-03-04T13:15:28;99723.44;;;13.32;63.10
9035;BME280;4552;43.422;24.592;2023-03-04T13:18:30;99722.41;;;13.37;63.83
9035;BME280;4552;43.422;24.592;2023-03-04T13:21:21;99718.22;;;13.30;65.17
9035;BME280;4552;43.422;24.592;2023-03-04T13:24:12;99703.78;;;13.14;64.91
9035;BME280;4552;43.422;24.592;2023-03-04T13:26:51;99711.56;;;13.19;64.00
9035;BME280;4552;43.422;24.592;2023-03-04T13:29:36;99704.06;;;13.04;64.20
9035;BME280;4552;43.422;24.592;2023-03-04T13:32:08;99705.53;;;13.15;64.27